MUMZ/MZO METAR and TAF weather

Enter ICAO airport designator
Station Type Date Time Source
MUMZ METAR 2022/07/19 12:50 UTC NOAA

MUMZ 191250Z 06008KT 9000 FEW020 27/25 Q1017


Station Type Date Time Source
MUMZ Decoded METAR 2022/07/19 12:50 UTC NOAA

Manzanillo, Oriente, Cuba (MUMZ) 20-20N 077-07W 60M
Jul 19, 2022 - 08:50 AM EDT / 2022.07.19 1250 UTC
Wind: from the ENE (060 degrees) at 9 MPH (8 KT):0
Visibility: 5 mile(s):0
Sky conditions: mostly clear
Temperature: 80 F (27 C)
Dew Point: 77 F (25 C)
Relative Humidity: 88%
Pressure (altimeter): 30.03 in. Hg (1017 hPa)
ob: MUMZ 191250Z 06008KT 9000 FEW020 27/25 Q1017
cycle: 13

Station Type Date Time Source
MUMZ TAF 2022/07/12 18:48 UTC NOAA

TAF MUMZ 121700Z 1218/1306 VRB03KT 9000 SCT020

Example: see airport list